Search for airport 
image banner adimage banner adimage banner ad
image banner ad

7PA1 - Warren Airpark

Located in Warren, United States

ICAO - 7PA1, IATA -

Data provided by Airmate  

General information

Coordinates: N41°51'57" W79°12'22"
Elevation is 1790 feet MSL.
Magnetic variation is -09° East
View others Airports in Pennsylvania

Operational data

Special qualification required
Current time UTC:
Current local time:
Weather at : KJHW - Chautauqua County/Jamestown ( 32 km )
METAR: KJHW 150556Z AUTO 30005KT 10SM FEW070 12/12 A2989 RMK AO2 SLP123 60011 T01220117 10183 20111 51005
TAF: KJHW 150530Z 1506/1606 33004KT P6SM SCT035 TEMPO 1506/1508 5SM BR FM150800 29007KT P6SM BKN025 TEMPO 1508/1511 3SM BR FM151100 29008KT P6SM BKN012 FM151500 31011G17KT P6SM BKN035 FM160000 33008KT P6SM SCT250
View NOTAMs / SUP AIP / TFR affecting this airport [VIEW]
Communications frequencies: [VIEW]

Runways:

RWY identifierQFULength (ft)Width (ft)SurfaceLDA (ft)
061900100GRASS
241900100GRASS

Airport contact information

Address: Warren United States

Satellite view of 7PA1